Korinthos, Greece
Current Conditions -  °F | °C
As of 1:50 PM on Sunday 23 Nov 2014 (Local Time) from LGEL Reporting Station
Broken Clouds Broken Clouds  
Wind Chill: 55°   Ceiling: 3000
Heat Index: 55°   Visibility: 6mi
Dew Point: 43°   Wind: 10mph
Humidity: 63%   Direction: 340°NNW
Pressure: 30.24"   Gusts: NA
Location:  37.94°N, 22.93°E
Report Text: LGEL 231050Z 34009KT 9999 FEW016 BKN030 13/06 Q1024
Loading
Personal Weather Stations






























Interactive Weather Map New forecast layout! Learn more

10-Day Weather Forecast

Advertisements
Track Severe Weather on mobile